Time;durP1;ratioP1;P1;durP2;ratioP2;P2;SDS_P1;SDS_P2;PMS_P1;PMS_P2;Temp;Humidity;BMP_temperature;BMP_pressure;BME280_temperature;BME280_humidity;BME280_pressure;Samples;Min_cycle;Max_cycle;Signal;HPM_P1;HPM_P2
2022/10/17 00:01:59;;;;;;;20.15;13.65;;;;;;;;;;5060093;28;20033;-77
2022/10/17 00:04:25;;;;;;;22.83;13.38;;;;;;;;;;5060011;28;20342;-77
2022/10/17 00:06:51;;;;;;;19.42;12.32;;;;;;;;;;5059959;28;20021;-77
2022/10/17 00:09:17;;;;;;;17.52;12.88;;;;;;;;;;5060302;28;20079;-76
2022/10/17 00:11:43;;;;;;;19.63;13.27;;;;;;;;;;5042442;28;20075;-77
2022/10/17 00:14:09;;;;;;;19.15;12.52;;;;;;;;;;5060119;28;20070;-77
2022/10/17 00:16:36;;;;;;;19.67;12.43;;;;;;;;;;5060064;28;20338;-77
2022/10/17 00:19:03;;;;;;;14.85;10.98;;;;;;;;;;5059768;28;20411;-77
2022/10/17 00:21:29;;;;;;;17.33;12.35;;;;;;;;;;5059884;28;20028;-78
2022/10/17 00:23:56;;;;;;;17.42;12.98;;;;;;;;;;5026484;28;20331;-78
2022/10/17 00:26:22;;;;;;;17.67;12.52;;;;;;;;;;5039416;28;20112;-78
2022/10/17 00:28:49;;;;;;;18.33;12.48;;;;;;;;;;5039794;28;20100;-78
2022/10/17 00:31:16;;;;;;;18.63;11.20;;;;;;;;;;5039861;28;20017;-77
2022/10/17 00:33:42;;;;;;;18.60;12.45;;;;;;;;;;5039968;28;20033;-78
2022/10/17 00:36:14;;;;;;;16.70;12.20;;;;;;;;;;5039587;28;20033;-77
2022/10/17 00:38:40;;;;;;;18.33;12.60;;;;;;;;;;5039847;28;20037;-78
2022/10/17 00:41:07;;;;;;;18.00;13.57;;;;;;;;;;5039028;28;20025;-78
2022/10/17 00:44:08;;;;;;;21.17;14.23;;;;;;;;;;5039396;28;20025;-78
2022/10/17 00:46:36;;;;;;;17.83;13.20;;;;;;;;;;4959326;28;20027;-78
2022/10/17 00:49:09;;;;;;;22.05;15.95;;;;;;;;;;4959718;29;20497;-78
2022/10/17 00:51:53;;;;;;;21.50;15.40;;;;;;;;;;4943504;29;20109;-78
2022/10/17 00:54:22;;;;;;;23.88;15.73;;;;;;;;;;4959454;29;20074;-78
2022/10/17 00:56:48;;;;;;;22.70;16.23;;;;;;;;;;4942638;29;20031;-78
2022/10/17 00:59:15;;;;;;;28.23;17.60;;;;;;;;;;4943427;29;20106;-78
2022/10/17 01:01:42;;;;;;;26.50;19.50;;;;;;;;;;4958921;29;20047;-77
2022/10/17 01:04:09;;;;;;;27.45;19.35;;;;;;;;;;4959265;29;20031;-78
2022/10/17 01:06:35;;;;;;;32.05;20.85;;;;;;;;;;4958820;29;20474;-78
2022/10/17 01:09:01;;;;;;;33.10;20.83;;;;;;;;;;4959085;29;20049;-78
2022/10/17 01:11:27;;;;;;;30.45;21.50;;;;;;;;;;4958920;29;20027;-78
2022/10/17 01:14:13;;;;;;;33.53;21.55;;;;;;;;;;4942722;29;20087;-77
2022/10/17 01:16:53;;;;;;;31.02;22.15;;;;;;;;;;4958484;29;20082;-77
2022/10/17 01:19:19;;;;;;;35.25;23.92;;;;;;;;;;4959248;28;20374;-76
2022/10/17 01:22:05;;;;;;;33.53;23.35;;;;;;;;;;5029793;28;20026;-77
2022/10/17 01:24:48;;;;;;;35.10;24.30;;;;;;;;;;5019503;28;20125;-77
2022/10/17 01:27:20;;;;;;;35.63;23.33;;;;;;;;;;5033001;28;20030;-77
2022/10/17 01:29:59;;;;;;;36.65;24.27;;;;;;;;;;5037345;28;20029;-77
2022/10/17 01:32:25;;;;;;;33.25;24.45;;;;;;;;;;5038477;28;20033;-77
2022/10/17 01:34:51;;;;;;;34.70;23.75;;;;;;;;;;5036821;28;20439;-77
2022/10/17 01:37:20;;;;;;;33.20;24.10;;;;;;;;;;5038382;28;20076;-77
2022/10/17 01:39:47;;;;;;;30.70;22.17;;;;;;;;;;5038450;28;20024;-78
2022/10/17 01:42:13;;;;;;;27.20;21.15;;;;;;;;;;5038271;28;20026;-77
2022/10/17 01:44:47;;;;;;;31.63;20.98;;;;;;;;;;5038467;28;20017;-78
2022/10/17 01:47:17;;;;;;;29.83;19.05;;;;;;;;;;5038340;28;20026;-78
2022/10/17 01:49:44;;;;;;;26.95;20.23;;;;;;;;;;5038146;28;20473;-77
2022/10/17 01:52:15;;;;;;;29.42;19.27;;;;;;;;;;5038486;28;20036;-78
2022/10/17 01:54:44;;;;;;;23.40;18.50;;;;;;;;;;5037843;28;20037;-78
2022/10/17 01:57:13;;;;;;;27.05;18.95;;;;;;;;;;5038051;28;20121;-78
2022/10/17 01:59:40;;;;;;;24.38;18.40;;;;;;;;;;5037848;28;20026;-78
2022/10/17 02:02:07;;;;;;;27.40;18.30;;;;;;;;;;5038576;28;20021;-78
2022/10/17 02:04:34;;;;;;;21.83;16.40;;;;;;;;;;5038063;28;20112;-78
2022/10/17 02:07:07;;;;;;;21.33;15.60;;;;;;;;;;5037992;28;20032;-78
2022/10/17 02:09:34;;;;;;;23.35;15.32;;;;;;;;;;5038101;28;20362;-78
2022/10/17 02:12:21;;;;;;;21.73;15.77;;;;;;;;;;5037846;28;21374;-78
2022/10/17 02:14:54;;;;;;;24.63;14.57;;;;;;;;;;5037573;28;20029;-78
2022/10/17 02:17:29;;;;;;;21.05;15.07;;;;;;;;;;5035788;28;20084;-78
2022/10/17 02:20:06;;;;;;;22.60;15.55;;;;;;;;;;5037767;28;20068;-78
2022/10/17 02:22:38;;;;;;;25.48;16.58;;;;;;;;;;5037551;28;20057;-78
2022/10/17 02:25:13;;;;;;;22.10;14.68;;;;;;;;;;5037508;28;20404;-78
2022/10/17 02:27:52;;;;;;;23.73;15.45;;;;;;;;;;5036611;28;20087;-78
2022/10/17 02:30:26;;;;;;;20.55;15.38;;;;;;;;;;5036552;28;20033;-78
2022/10/17 02:32:55;;;;;;;22.85;15.50;;;;;;;;;;5037463;28;20117;-78
2022/10/17 02:35:22;;;;;;;21.92;15.77;;;;;;;;;;5037068;28;20025;-77
2022/10/17 02:37:48;;;;;;;19.83;15.93;;;;;;;;;;5037269;28;20036;-78
2022/10/17 02:40:17;;;;;;;21.90;15.88;;;;;;;;;;5037069;28;20422;-78
2022/10/17 02:42:45;;;;;;;22.35;15.70;;;;;;;;;;5037144;28;20482;-77
2022/10/17 02:45:11;;;;;;;23.00;16.52;;;;;;;;;;5037294;28;20029;-77
2022/10/17 02:47:44;;;;;;;27.17;16.73;;;;;;;;;;5037288;28;20071;-77
2022/10/17 02:50:10;;;;;;;21.48;15.07;;;;;;;;;;5037184;28;20473;-77
2022/10/17 02:52:36;;;;;;;23.52;15.18;;;;;;;;;;5036989;28;20419;-77
2022/10/17 02:55:16;;;;;;;27.60;16.80;;;;;;;;;;5034453;28;20064;-77
2022/10/17 02:57:44;;;;;;;19.73;16.30;;;;;;;;;;5037004;28;20025;-77
2022/10/17 03:00:12;;;;;;;24.80;16.13;;;;;;;;;;5037266;28;20021;-77
2022/10/17 03:02:39;;;;;;;21.33;16.13;;;;;;;;;;5037088;28;20036;-77
2022/10/17 03:05:05;;;;;;;27.67;15.75;;;;;;;;;;5035958;28;20311;-77
2022/10/17 03:07:31;;;;;;;23.20;16.48;;;;;;;;;;5036649;28;20132;-77
2022/10/17 03:10:12;;;;;;;21.88;14.43;;;;;;;;;;5035088;28;20424;-78
2022/10/17 03:12:38;;;;;;;19.02;13.15;;;;;;;;;;5020505;28;20048;-78
2022/10/17 03:15:05;;;;;;;17.65;13.00;;;;;;;;;;5036842;28;20029;-77
2022/10/17 03:17:31;;;;;;;22.73;14.30;;;;;;;;;;5036632;28;20423;-78
2022/10/17 03:19:57;;;;;;;25.77;13.60;;;;;;;;;;5037019;28;20041;-78
2022/10/17 03:22:23;;;;;;;24.10;14.00;;;;;;;;;;5030491;28;20110;-78
2022/10/17 03:24:49;;;;;;;22.15;12.60;;;;;;;;;;5036664;28;20308;-77
2022/10/17 03:27:15;;;;;;;16.65;12.07;;;;;;;;;;5036263;28;20030;-76
2022/10/17 03:29:41;;;;;;;19.55;12.07;;;;;;;;;;5036365;28;20445;-77
2022/10/17 03:32:07;;;;;;;17.95;11.98;;;;;;;;;;5036594;28;20109;-76
2022/10/17 03:34:33;;;;;;;16.80;12.55;;;;;;;;;;5036377;28;20025;-77
2022/10/17 03:36:59;;;;;;;19.92;12.98;;;;;;;;;;5036701;28;20351;-77
2022/10/17 03:39:25;;;;;;;22.15;12.50;;;;;;;;;;5019049;28;20033;-77
2022/10/17 03:41:51;;;;;;;18.73;12.55;;;;;;;;;;5036208;28;20026;-75
2022/10/17 03:44:17;;;;;;;19.20;12.65;;;;;;;;;;5034990;28;20104;-74
2022/10/17 03:46:43;;;;;;;16.25;11.98;;;;;;;;;;5036573;28;20163;-74
2022/10/17 03:49:09;;;;;;;20.02;13.30;;;;;;;;;;5036045;28;20402;-74
2022/10/17 03:51:36;;;;;;;16.75;12.70;;;;;;;;;;5036955;28;20021;-74
2022/10/17 03:54:02;;;;;;;20.05;12.20;;;;;;;;;;5036654;28;20318;-74
2022/10/17 03:56:28;;;;;;;20.55;12.88;;;;;;;;;;5036801;28;20075;-74
2022/10/17 03:58:55;;;;;;;16.15;11.80;;;;;;;;;;5036728;28;20045;-74
2022/10/17 04:01:21;;;;;;;20.30;11.77;;;;;;;;;;5019221;28;20343;-74
2022/10/17 04:03:51;;;;;;;19.58;11.68;;;;;;;;;;5036800;28;20030;-74
2022/10/17 04:06:17;;;;;;;20.02;12.48;;;;;;;;;;5036731;28;20030;-74
2022/10/17 04:08:43;;;;;;;19.90;12.10;;;;;;;;;;5036699;28;20052;-74
2022/10/17 04:11:12;;;;;;;21.85;12.40;;;;;;;;;;5019046;28;20029;-74
2022/10/17 04:13:38;;;;;;;21.55;12.40;;;;;;;;;;5036408;28;20400;-74
2022/10/17 04:16:06;;;;;;;19.48;11.98;;;;;;;;;;5036446;28;20029;-74
2022/10/17 04:18:32;;;;;;;17.45;12.85;;;;;;;;;;5036664;28;20113;-74
2022/10/17 04:21:01;;;;;;;19.00;12.75;;;;;;;;;;5019160;28;20025;-74
2022/10/17 04:23:27;;;;;;;16.17;12.40;;;;;;;;;;5022695;28;20061;-74
2022/10/17 04:25:55;;;;;;;15.07;11.82;;;;;;;;;;5040078;28;20025;-74
2022/10/17 04:28:21;;;;;;;22.35;13.18;;;;;;;;;;5040063;28;20347;-74
2022/10/17 04:30:47;;;;;;;20.25;13.20;;;;;;;;;;5040025;28;20316;-74
2022/10/17 04:33:13;;;;;;;17.05;12.13;;;;;;;;;;5022441;28;20036;-74
2022/10/17 04:35:39;;;;;;;19.35;11.88;;;;;;;;;;5040226;28;20032;-74
2022/10/17 04:38:05;;;;;;;22.40;12.82;;;;;;;;;;5039740;28;20038;-74
2022/10/17 04:40:32;;;;;;;18.45;12.13;;;;;;;;;;5039792;28;20091;-74
2022/10/17 04:42:58;;;;;;;20.17;11.90;;;;;;;;;;5039869;28;20026;-74
2022/10/17 04:45:24;;;;;;;21.15;12.32;;;;;;;;;;5039662;28;20052;-74
2022/10/17 04:47:50;;;;;;;21.35;12.10;;;;;;;;;;5039770;28;20147;-74
2022/10/17 04:50:16;;;;;;;19.98;12.70;;;;;;;;;;5039693;28;20439;-74
2022/10/17 04:52:42;;;;;;;19.92;12.55;;;;;;;;;;5039827;28;20040;-74
2022/10/17 04:55:08;;;;;;;17.30;12.98;;;;;;;;;;5039525;28;20414;-74
2022/10/17 04:57:34;;;;;;;26.10;13.35;;;;;;;;;;5039568;28;20075;-74
2022/10/17 05:00:00;;;;;;;20.15;14.20;;;;;;;;;;5039614;28;20048;-74
2022/10/17 05:02:26;;;;;;;20.98;14.80;;;;;;;;;;5039572;28;20391;-74
2022/10/17 05:04:52;;;;;;;25.63;16.60;;;;;;;;;;5039390;28;20022;-73
2022/10/17 05:07:18;;;;;;;30.83;17.73;;;;;;;;;;5039618;28;20159;-74
2022/10/17 05:09:44;;;;;;;25.65;18.25;;;;;;;;;;5039559;28;20045;-74
2022/10/17 05:12:10;;;;;;;25.85;18.10;;;;;;;;;;5039410;28;20375;-74
2022/10/17 05:14:36;;;;;;;27.55;19.52;;;;;;;;;;5039257;28;20079;-74
2022/10/17 05:17:02;;;;;;;27.58;19.23;;;;;;;;;;5039208;28;20099;-74
2022/10/17 05:19:28;;;;;;;26.40;19.58;;;;;;;;;;5039229;28;20021;-74
2022/10/17 05:21:54;;;;;;;27.63;19.65;;;;;;;;;;5039090;28;20068;-73
2022/10/17 05:24:20;;;;;;;30.70;21.05;;;;;;;;;;5039235;28;20314;-74
2022/10/17 05:26:49;;;;;;;28.77;19.58;;;;;;;;;;5039124;28;20021;-74
2022/10/17 05:29:16;;;;;;;29.50;18.85;;;;;;;;;;5039029;28;20465;-74
2022/10/17 05:31:42;;;;;;;34.17;20.15;;;;;;;;;;5021440;28;20442;-74
2022/10/17 05:34:08;;;;;;;27.13;18.17;;;;;;;;;;5020026;28;20038;-74
2022/10/17 05:36:34;;;;;;;25.55;17.98;;;;;;;;;;5038678;28;20024;-74
2022/10/17 05:39:00;;;;;;;23.40;17.63;;;;;;;;;;5038817;28;20030;-73
2022/10/17 05:41:26;;;;;;;23.58;16.67;;;;;;;;;;5038755;28;20384;-74
2022/10/17 05:43:52;;;;;;;23.70;16.00;;;;;;;;;;5038683;28;20041;-74
2022/10/17 05:46:18;;;;;;;18.00;13.02;;;;;;;;;;5038603;28;20025;-74
2022/10/17 05:48:44;;;;;;;20.90;12.63;;;;;;;;;;5038752;28;20036;-74
2022/10/17 05:51:10;;;;;;;18.10;12.95;;;;;;;;;;5038485;28;20021;-73
2022/10/17 05:53:38;;;;;;;18.42;12.02;;;;;;;;;;5038684;28;20037;-74
2022/10/17 05:56:05;;;;;;;16.38;11.32;;;;;;;;;;5038562;28;20358;-73
2022/10/17 05:58:33;;;;;;;18.70;11.52;;;;;;;;;;5020893;28;20091;-74
2022/10/17 06:01:00;;;;;;;16.70;10.57;;;;;;;;;;5038349;28;20025;-74
2022/10/17 06:03:26;;;;;;;19.17;10.63;;;;;;;;;;5038527;28;20024;-74
2022/10/17 06:05:53;;;;;;;16.65;10.80;;;;;;;;;;5038233;28;20410;-74
2022/10/17 06:08:19;;;;;;;20.38;12.75;;;;;;;;;;5038359;28;20100;-74
2022/10/17 06:10:49;;;;;;;22.73;11.65;;;;;;;;;;5038305;28;20071;-74
2022/10/17 06:13:18;;;;;;;19.55;11.30;;;;;;;;;;5038228;28;20033;-74
2022/10/17 06:15:44;;;;;;;61.08;35.35;;;;;;;;;;5020067;28;20083;-74
2022/10/17 06:18:10;;;;;;;19.92;13.02;;;;;;;;;;5037771;28;20037;-74
2022/10/17 06:20:36;;;;;;;21.00;12.20;;;;;;;;;;5038067;28;20017;-74
2022/10/17 06:23:03;;;;;;;15.15;10.88;;;;;;;;;;5037772;28;20092;-74
2022/10/17 06:25:32;;;;;;;23.83;13.00;;;;;;;;;;5038012;28;20025;-73
2022/10/17 06:27:58;;;;;;;21.50;13.57;;;;;;;;;;5019681;28;20041;-74
2022/10/17 06:30:24;;;;;;;23.13;14.52;;;;;;;;;;5019985;28;20037;-74
2022/10/17 06:32:51;;;;;;;17.60;11.02;;;;;;;;;;5037733;28;20079;-74
2022/10/17 06:35:17;;;;;;;25.08;14.23;;;;;;;;;;5037901;28;20032;-74
2022/10/17 06:37:43;;;;;;;29.80;18.80;;;;;;;;;;5020069;28;20323;-74
2022/10/17 06:40:11;;;;;;;26.42;15.13;;;;;;;;;;5037616;28;20021;-74
2022/10/17 06:42:37;;;;;;;22.75;13.70;;;;;;;;;;5037872;28;20113;-74
2022/10/17 06:45:03;;;;;;;20.02;13.30;;;;;;;;;;5019920;28;20416;-74
2022/10/17 06:47:29;;;;;;;23.15;14.02;;;;;;;;;;5037554;28;20034;-74
2022/10/17 06:49:55;;;;;;;19.92;13.48;;;;;;;;;;5037648;28;20049;-74
2022/10/17 06:52:21;;;;;;;25.92;14.70;;;;;;;;;;5037683;28;20060;-74
2022/10/17 06:54:47;;;;;;;23.92;16.02;;;;;;;;;;5037514;28;20482;-74
2022/10/17 06:57:13;;;;;;;25.00;15.75;;;;;;;;;;5037311;28;20037;-74
2022/10/17 06:59:39;;;;;;;24.40;14.55;;;;;;;;;;5037369;28;20029;-74
2022/10/17 07:02:07;;;;;;;19.55;13.40;;;;;;;;;;5037399;28;20445;-74
2022/10/17 07:04:33;;;;;;;25.55;12.85;;;;;;;;;;5037199;28;20412;-74
2022/10/17 07:07:01;;;;;;;24.15;14.02;;;;;;;;;;5037553;28;20315;-73
2022/10/17 07:09:27;;;;;;;32.80;17.20;;;;;;;;;;5037400;28;20071;-74
2022/10/17 07:11:53;;;;;;;29.02;15.05;;;;;;;;;;5037099;28;20021;-74
2022/10/17 07:14:20;;;;;;;27.98;17.48;;;;;;;;;;5037141;28;20112;-74
2022/10/17 07:16:46;;;;;;;21.15;13.13;;;;;;;;;;5037117;28;20084;-74
2022/10/17 07:19:12;;;;;;;26.15;16.48;;;;;;;;;;5036899;28;20026;-74
2022/10/17 07:21:38;;;;;;;23.70;15.45;;;;;;;;;;5037106;28;20415;-74
2022/10/17 07:24:05;;;;;;;31.00;19.35;;;;;;;;;;5036881;28;20077;-74
2022/10/17 07:26:32;;;;;;;22.50;15.82;;;;;;;;;;5037011;28;20025;-74
2022/10/17 07:28:58;;;;;;;22.08;14.85;;;;;;;;;;5019425;28;20068;-74
2022/10/17 07:31:24;;;;;;;25.67;15.10;;;;;;;;;;5036936;28;20064;-74
2022/10/17 07:33:50;;;;;;;16.45;11.98;;;;;;;;;;5037154;28;20316;-74
2022/10/17 07:36:17;;;;;;;24.25;13.32;;;;;;;;;;5037087;28;20029;-73
2022/10/17 07:38:43;;;;;;;20.08;14.15;;;;;;;;;;5036824;28;20350;-73
2022/10/17 07:41:10;;;;;;;18.90;12.95;;;;;;;;;;5036876;28;20400;-74
2022/10/17 07:43:37;;;;;;;21.40;14.90;;;;;;;;;;5019400;28;20297;-74
2022/10/17 07:46:04;;;;;;;21.70;12.50;;;;;;;;;;5036791;28;20018;-74
2022/10/17 07:48:31;;;;;;;16.92;12.65;;;;;;;;;;5019290;28;20315;-74
2022/10/17 07:50:57;;;;;;;17.65;12.88;;;;;;;;;;5036934;28;20061;-74
2022/10/17 07:53:23;;;;;;;22.42;12.07;;;;;;;;;;5036617;28;20029;-74
2022/10/17 07:55:50;;;;;;;18.42;11.52;;;;;;;;;;5019292;28;20037;-73
2022/10/17 07:58:16;;;;;;;18.13;12.15;;;;;;;;;;5040623;28;20024;-74
2022/10/17 08:00:42;;;;;;;16.10;11.38;;;;;;;;;;5040645;28;20040;-74
2022/10/17 08:03:10;;;;;;;19.85;12.05;;;;;;;;;;5040668;28;20028;-74
2022/10/17 08:05:36;;;;;;;16.55;11.43;;;;;;;;;;5040840;28;20017;-74
2022/10/17 08:08:02;;;;;;;21.58;13.52;;;;;;;;;;5040582;28;20359;-74
2022/10/17 08:10:28;;;;;;;17.90;12.68;;;;;;;;;;5040427;28;20021;-74
2022/10/17 08:12:55;;;;;;;22.83;12.85;;;;;;;;;;5023248;28;20031;-74
2022/10/17 08:15:22;;;;;;;17.92;11.40;;;;;;;;;;5040504;28;20026;-74
2022/10/17 08:17:48;;;;;;;19.08;11.45;;;;;;;;;;5040116;28;20032;-74
2022/10/17 08:20:14;;;;;;;14.30;10.68;;;;;;;;;;5040359;28;20025;-73
2022/10/17 08:22:40;;;;;;;23.13;13.68;;;;;;;;;;5013037;28;20254;-74
2022/10/17 08:25:06;;;;;;;16.73;11.02;;;;;;;;;;4999935;28;20155;-74
2022/10/17 08:27:33;;;;;;;20.35;11.25;;;;;;;;;;5000912;28;20035;-74
2022/10/17 08:29:59;;;;;;;17.88;10.55;;;;;;;;;;5001009;28;20301;-74
2022/10/17 08:32:28;;;;;;;19.10;11.05;;;;;;;;;;5000632;28;20034;-74
2022/10/17 08:34:54;;;;;;;17.85;11.10;;;;;;;;;;5000846;28;20023;-73
2022/10/17 08:37:21;;;;;;;16.35;10.98;;;;;;;;;;5000630;28;20109;-73
2022/10/17 08:39:47;;;;;;;21.02;12.77;;;;;;;;;;5000592;28;20409;-74
2022/10/17 08:42:19;;;;;;;23.50;12.23;;;;;;;;;;5000575;28;20018;-74
2022/10/17 08:44:45;;;;;;;19.92;13.40;;;;;;;;;;5000519;28;20321;-74
2022/10/17 08:47:18;;;;;;;15.82;9.88;;;;;;;;;;5000287;28;20026;-74
2022/10/17 08:49:51;;;;;;;18.73;11.02;;;;;;;;;;5000423;28;20053;-74
2022/10/17 08:52:25;;;;;;;16.88;10.63;;;;;;;;;;5000138;28;20345;-74
2022/10/17 08:54:51;;;;;;;13.77;9.20;;;;;;;;;;5000357;28;20042;-73
2022/10/17 08:57:17;;;;;;;13.18;8.70;;;;;;;;;;5000175;28;20069;-74
2022/10/17 08:59:44;;;;;;;14.52;9.48;;;;;;;;;;4999109;28;20049;-74
2022/10/17 09:02:22;;;;;;;16.33;9.25;;;;;;;;;;5000066;28;20026;-73
2022/10/17 09:05:00;;;;;;;12.85;8.90;;;;;;;;;;5000175;28;20033;-74
2022/10/17 09:07:45;;;;;;;17.63;9.32;;;;;;;;;;4998354;28;20026;-74
2022/10/17 09:10:29;;;;;;;13.77;8.52;;;;;;;;;;4999737;28;20381;-74
2022/10/17 09:12:58;;;;;;;22.85;10.15;;;;;;;;;;4998598;28;20417;-74
2022/10/17 09:15:44;;;;;;;20.73;13.02;;;;;;;;;;4980438;28;20037;-73
2022/10/17 09:18:16;;;;;;;15.20;9.85;;;;;;;;;;4980445;28;20396;-74
2022/10/17 09:20:52;;;;;;;11.95;9.02;;;;;;;;;;4980222;28;20313;-74
2022/10/17 09:23:23;;;;;;;15.70;7.82;;;;;;;;;;5002771;28;20129;-74
2022/10/17 09:25:51;;;;;;;14.20;7.07;;;;;;;;;;5019386;28;20033;-74
2022/10/17 09:28:17;;;;;;;12.88;8.60;;;;;;;;;;5019406;28;20029;-74
2022/10/17 09:30:43;;;;;;;12.98;7.55;;;;;;;;;;5019236;28;20052;-74
2022/10/17 09:33:16;;;;;;;16.73;7.43;;;;;;;;;;5019327;28;20483;-74
2022/10/17 09:35:43;;;;;;;15.32;7.85;;;;;;;;;;5019049;28;20438;-74
2022/10/17 09:38:13;;;;;;;15.48;8.15;;;;;;;;;;5019180;28;20068;-73
2022/10/17 09:40:39;;;;;;;10.55;6.93;;;;;;;;;;5019007;28;20026;-74
2022/10/17 09:43:07;;;;;;;13.35;8.35;;;;;;;;;;5018795;28;20021;-74
2022/10/17 09:45:42;;;;;;;14.23;7.53;;;;;;;;;;5017910;28;20435;-74
2022/10/17 09:48:30;;;;;;;14.90;7.45;;;;;;;;;;5018599;28;20477;-74
2022/10/17 09:50:56;;;;;;;17.77;9.75;;;;;;;;;;5018793;28;20431;-74
2022/10/17 09:53:29;;;;;;;15.23;7.57;;;;;;;;;;5018579;28;20044;-73
2022/10/17 09:55:58;;;;;;;9.98;6.55;;;;;;;;;;5018637;28;20100;-73
2022/10/17 09:58:39;;;;;;;9.43;6.47;;;;;;;;;;5027098;28;20056;-73
2022/10/17 10:01:19;;;;;;;14.40;6.93;;;;;;;;;;5038372;28;20028;-74
2022/10/17 10:03:45;;;;;;;15.20;6.43;;;;;;;;;;5038465;28;20063;-73
2022/10/17 10:06:11;;;;;;;12.88;6.45;;;;;;;;;;5020815;28;20033;-73
2022/10/17 10:08:50;;;;;;;12.68;7.50;;;;;;;;;;5038264;28;20171;-74
2022/10/17 10:11:16;;;;;;;12.43;7.90;;;;;;;;;;5038374;28;20033;-73
2022/10/17 10:13:43;;;;;;;16.90;7.90;;;;;;;;;;5038424;28;20108;-74
2022/10/17 10:16:13;;;;;;;17.38;8.30;;;;;;;;;;5038127;28;20453;-73
2022/10/17 10:18:39;;;;;;;13.52;6.35;;;;;;;;;;5050756;28;20044;-73
2022/10/17 10:21:05;;;;;;;12.05;8.20;;;;;;;;;;5057607;28;20316;-73
2022/10/17 10:23:32;;;;;;;13.93;8.05;;;;;;;;;;5057573;28;20451;-74
2022/10/17 10:25:59;;;;;;;11.48;7.43;;;;;;;;;;5058088;28;20083;-74
2022/10/17 10:28:30;;;;;;;11.52;6.75;;;;;;;;;;5057893;28;20032;-74
2022/10/17 10:30:57;;;;;;;15.83;7.30;;;;;;;;;;5057783;28;20035;-73
2022/10/17 10:33:27;;;;;;;13.98;8.05;;;;;;;;;;5057898;28;20029;-73
2022/10/17 10:35:58;;;;;;;16.65;7.50;;;;;;;;;;5057689;28;20028;-74
2022/10/17 10:38:24;;;;;;;14.30;9.02;;;;;;;;;;5057351;28;20048;-74
2022/10/17 10:40:52;;;;;;;13.23;6.53;;;;;;;;;;5057538;28;20029;-74
2022/10/17 10:43:22;;;;;;;12.38;6.22;;;;;;;;;;5057578;28;20020;-73
2022/10/17 10:45:48;;;;;;;12.95;8.23;;;;;;;;;;5039834;28;20032;-74
2022/10/17 10:48:25;;;;;;;8.63;5.32;;;;;;;;;;5057670;28;20025;-74
2022/10/17 10:50:59;;;;;;;12.85;6.25;;;;;;;;;;5057313;28;20028;-74
2022/10/17 10:53:29;;;;;;;13.27;6.22;;;;;;;;;;5057677;28;20044;-73
2022/10/17 10:55:58;;;;;;;8.60;5.47;;;;;;;;;;5057335;28;20068;-74
2022/10/17 10:58:27;;;;;;;10.00;5.78;;;;;;;;;;5039605;28;20074;-74
2022/10/17 11:00:54;;;;;;;15.73;11.13;;;;;;;;;;5039885;28;20045;-74
2022/10/17 11:03:26;;;;;;;16.83;7.38;;;;;;;;;;5039549;28;20029;-74
2022/10/17 11:05:55;;;;;;;10.75;6.00;;;;;;;;;;5057063;28;20024;-73
2022/10/17 11:08:28;;;;;;;17.77;7.47;;;;;;;;;;5057161;28;20033;-74
2022/10/17 11:11:06;;;;;;;8.90;5.25;;;;;;;;;;5057054;28;20311;-74
2022/10/17 11:13:37;;;;;;;17.00;8.82;;;;;;;;;;5057223;28;20300;-73
2022/10/17 11:16:06;;;;;;;15.90;7.03;;;;;;;;;;5057081;28;20052;-74
2022/10/17 11:18:41;;;;;;;18.42;8.90;;;;;;;;;;5057091;28;20158;-73
2022/10/17 11:21:12;;;;;;;18.20;9.48;;;;;;;;;;5056883;28;20399;-73
2022/10/17 11:23:44;;;;;;;8.23;5.22;;;;;;;;;;5056487;28;20131;-73
2022/10/17 11:26:15;;;;;;;9.52;6.03;;;;;;;;;;5039220;28;20033;-73
2022/10/17 11:28:41;;;;;;;10.60;7.63;;;;;;;;;;5056848;28;20044;-74
2022/10/17 11:31:13;;;;;;;9.45;5.03;;;;;;;;;;5038477;28;20047;-73
2022/10/17 11:33:57;;;;;;;11.80;6.32;;;;;;;;;;5057082;28;20021;-74
2022/10/17 11:36:28;;;;;;;36.05;21.33;;;;;;;;;;5056774;28;20021;-74
2022/10/17 11:38:54;;;;;;;10.30;7.28;;;;;;;;;;5056842;28;20092;-74
2022/10/17 11:41:26;;;;;;;10.77;6.18;;;;;;;;;;5056744;28;20300;-73
2022/10/17 11:44:12;;;;;;;9.50;5.72;;;;;;;;;;5056989;28;20021;-73
2022/10/17 11:46:39;;;;;;;10.63;5.40;;;;;;;;;;5056611;28;20044;-73
2022/10/17 11:49:13;;;;;;;10.40;5.53;;;;;;;;;;5056611;28;20399;-74
2022/10/17 11:51:47;;;;;;;15.05;5.28;;;;;;;;;;5056337;28;20029;-74
2022/10/17 11:54:16;;;;;;;12.77;5.00;;;;;;;;;;5039160;28;20037;-73
2022/10/17 11:56:58;;;;;;;13.77;6.03;;;;;;;;;;5044046;28;20033;-74
2022/10/17 11:59:23;;;;;;;;;;;;;;;;;;5037047;28;20470;-74
2022/10/17 12:01:56;;;;;;;15.20;9.35;;;;;;;;;;5036708;28;19909;-74
2022/10/17 12:04:42;;;;;;;18.13;10.65;;;;;;;;;;5036572;28;20359;-74
2022/10/17 12:07:27;;;;;;;16.52;8.27;;;;;;;;;;4956640;28;20028;-74
2022/10/17 12:09:59;;;;;;;24.27;7.80;;;;;;;;;;4956681;29;20035;-74
2022/10/17 12:12:27;;;;;;;14.43;8.15;;;;;;;;;;4956736;29;20054;-74
2022/10/17 12:14:53;;;;;;;14.10;6.50;;;;;;;;;;4956676;29;20024;-74
2022/10/17 12:17:38;;;;;;;14.68;5.47;;;;;;;;;;4956662;29;20031;-73
2022/10/17 12:20:24;;;;;;;11.52;6.10;;;;;;;;;;4956539;28;20493;-74
2022/10/17 12:22:52;;;;;;;12.38;5.78;;;;;;;;;;4956354;28;20099;-73
2022/10/17 12:25:19;;;;;;;10.18;5.40;;;;;;;;;;4956594;28;20039;-74
2022/10/17 12:27:49;;;;;;;12.30;5.63;;;;;;;;;;4956469;29;20365;-73
2022/10/17 12:30:17;;;;;;;35.17;8.27;;;;;;;;;;4956572;29;20059;-74
2022/10/17 12:32:55;;;;;;;18.65;10.25;;;;;;;;;;4956644;28;20058;-73
2022/10/17 12:35:22;;;;;;;16.88;9.70;;;;;;;;;;4956513;28;20074;-74
2022/10/17 12:37:48;;;;;;;11.80;7.95;;;;;;;;;;4956433;28;20046;-74
2022/10/17 12:40:32;;;;;;;13.05;6.43;;;;;;;;;;4956463;28;20027;-73
2022/10/17 12:42:58;;;;;;;12.30;5.22;;;;;;;;;;4958110;28;20413;-74
2022/10/17 12:45:43;;;;;;;11.00;5.57;;;;;;;;;;5039255;28;20037;-74
2022/10/17 12:48:09;;;;;;;14.73;6.95;;;;;;;;;;5039741;28;20029;-74
2022/10/17 12:50:56;;;;;;;20.05;5.57;;;;;;;;;;5022019;28;20327;-73
2022/10/17 12:53:24;;;;;;;12.88;7.93;;;;;;;;;;5039822;28;20037;-73
2022/10/17 12:55:51;;;;;;;14.20;7.63;;;;;;;;;;5037853;28;20415;-73
2022/10/17 12:58:17;;;;;;;13.73;7.25;;;;;;;;;;5039602;28;20055;-73
2022/10/17 13:00:48;;;;;;;18.23;7.80;;;;;;;;;;5039807;28;20309;-74
2022/10/17 13:03:19;;;;;;;11.00;8.07;;;;;;;;;;5039454;28;20021;-74
2022/10/17 13:05:48;;;;;;;15.38;7.55;;;;;;;;;;5039224;28;20030;-74
2022/10/17 13:08:34;;;;;;;15.45;6.80;;;;;;;;;;5039254;28;20053;-74
2022/10/17 13:11:01;;;;;;;14.95;6.38;;;;;;;;;;5039214;28;20438;-74
2022/10/17 13:13:47;;;;;;;8.80;5.18;;;;;;;;;;5039170;28;20052;-74
2022/10/17 13:16:32;;;;;;;10.98;5.70;;;;;;;;;;5039261;28;20029;-74
2022/10/17 13:18:59;;;;;;;14.63;5.90;;;;;;;;;;5038977;28;20497;-74
2022/10/17 13:21:25;;;;;;;20.15;9.18;;;;;;;;;;5039257;28;20021;-73
2022/10/17 13:23:53;;;;;;;19.55;7.10;;;;;;;;;;5038829;28;20052;-74
2022/10/17 13:26:25;;;;;;;15.90;9.05;;;;;;;;;;5038084;28;20068;-74
2022/10/17 13:29:04;;;;;;;37.38;17.15;;;;;;;;;;5037050;28;20041;-74
2022/10/17 13:31:32;;;;;;;14.70;7.63;;;;;;;;;;5039134;28;20041;-74
2022/10/17 13:33:59;;;;;;;41.92;24.60;;;;;;;;;;5039013;28;20430;-73
2022/10/17 13:36:26;;;;;;;47.40;28.50;;;;;;;;;;5038917;28;20378;-74
2022/10/17 13:38:52;;;;;;;55.40;30.10;;;;;;;;;;5038827;28;20033;-74
2022/10/17 13:41:23;;;;;;;34.08;18.17;;;;;;;;;;5038941;28;20032;-74
2022/10/17 13:43:49;;;;;;;30.98;17.08;;;;;;;;;;5038835;28;20372;-73
2022/10/17 13:46:18;;;;;;;42.65;24.75;;;;;;;;;;5038952;28;20041;-74
2022/10/17 13:48:44;;;;;;;36.85;15.98;;;;;;;;;;5021124;28;20084;-74
2022/10/17 13:51:11;;;;;;;30.40;16.73;;;;;;;;;;5038760;28;20102;-73
2022/10/17 13:53:40;;;;;;;44.80;22.85;;;;;;;;;;5038478;28;20118;-74
2022/10/17 13:56:06;;;;;;;63.42;33.38;;;;;;;;;;5038501;28;20165;-73
2022/10/17 13:58:42;;;;;;;36.67;20.77;;;;;;;;;;5038242;28;20439;-73
2022/10/17 14:01:08;;;;;;;33.25;17.95;;;;;;;;;;5021102;28;20044;-74
2022/10/17 14:03:34;;;;;;;37.00;24.05;;;;;;;;;;5038248;28;20021;-74
2022/10/17 14:06:00;;;;;;;55.30;36.75;;;;;;;;;;5038342;28;20017;-73
2022/10/17 14:08:29;;;;;;;34.53;21.15;;;;;;;;;;5038016;28;20037;-73
2022/10/17 14:10:57;;;;;;;23.15;12.30;;;;;;;;;;5038444;28;20026;-74
2022/10/17 14:13:24;;;;;;;17.73;8.57;;;;;;;;;;5038484;28;20060;-74
2022/10/17 14:15:51;;;;;;;17.20;7.90;;;;;;;;;;5038157;28;20029;-74
2022/10/17 14:18:19;;;;;;;17.05;10.02;;;;;;;;;;5037813;28;20075;-73
2022/10/17 14:20:46;;;;;;;12.60;7.82;;;;;;;;;;5038040;28;20026;-74
2022/10/17 14:23:30;;;;;;;21.08;11.57;;;;;;;;;;5037701;28;20049;-74
2022/10/17 14:26:10;;;;;;;22.23;12.95;;;;;;;;;;5038049;28;20028;-74
2022/10/17 14:28:37;;;;;;;21.27;13.60;;;;;;;;;;5020476;28;20036;-74
2022/10/17 14:31:15;;;;;;;13.40;8.73;;;;;;;;;;5037987;28;20104;-73
2022/10/17 14:33:48;;;;;;;12.88;8.02;;;;;;;;;;5037866;28;20423;-73